sensor_id;sensor_type;location;lat;lon;timestamp;temperature;humidity
70820;DHT22;58439;51.046;13.692;2023-02-01T00:01:12;5.20;95.80
70820;DHT22;58439;51.046;13.692;2023-02-01T00:03:40;5.10;95.80
70820;DHT22;58439;51.046;13.692;2023-02-01T00:06:07;5.00;96.00
70820;DHT22;58439;51.046;13.692;2023-02-01T00:08:34;5.00;96.30
70820;DHT22;58439;51.046;13.692;2023-02-01T00:11:04;5.00;96.30
70820;DHT22;58439;51.046;13.692;2023-02-01T00:13:34;5.10;96.10
70820;DHT22;58439;51.046;13.692;2023-02-01T00:16:15;5.10;95.50
70820;DHT22;58439;51.046;13.692;2023-02-01T00:18:49;5.10;95.50
70820;DHT22;58439;51.046;13.692;2023-02-01T00:21:20;5.10;95.10
70820;DHT22;58439;51.046;13.692;2023-02-01T00:23:48;5.20;95.00
70820;DHT22;58439;51.046;13.692;2023-02-01T00:26:19;5.10;94.90
70820;DHT22;58439;51.046;13.692;2023-02-01T00:28:51;5.00;95.50
70820;DHT22;58439;51.046;13.692;2023-02-01T00:31:19;5.10;95.10
70820;DHT22;58439;51.046;13.692;2023-02-01T00:33:48;5.10;94.90
70820;DHT22;58439;51.046;13.692;2023-02-01T00:36:18;5.20;94.70
70820;DHT22;58439;51.046;13.692;2023-02-01T00:38:45;5.30;94.50
70820;DHT22;58439;51.046;13.692;2023-02-01T00:41:18;5.30;94.30
70820;DHT22;58439;51.046;13.692;2023-02-01T00:43:52;5.30;94.30
70820;DHT22;58439;51.046;13.692;2023-02-01T00:46:20;5.30;94.20
70820;DHT22;58439;51.046;13.692;2023-02-01T00:48:49;5.30;94.10
70820;DHT22;58439;51.046;13.692;2023-02-01T00:51:21;5.30;93.90
70820;DHT22;58439;51.046;13.692;2023-02-01T00:53:50;5.20;93.80
70820;DHT22;58439;51.046;13.692;2023-02-01T00:56:18;5.30;93.60
70820;DHT22;58439;51.046;13.692;2023-02-01T00:58:46;5.30;93.30
70820;DHT22;58439;51.046;13.692;2023-02-01T01:01:22;5.20;93.30
70820;DHT22;58439;51.046;13.692;2023-02-01T01:03:56;5.30;93.10
70820;DHT22;58439;51.046;13.692;2023-02-01T01:06:30;5.20;93.00
70820;DHT22;58439;51.046;13.692;2023-02-01T01:09:02;5.20;92.90
70820;DHT22;58439;51.046;13.692;2023-02-01T01:11:35;5.20;92.90
70820;DHT22;58439;51.046;13.692;2023-02-01T01:14:08;5.20;92.90
70820;DHT22;58439;51.046;13.692;2023-02-01T01:16:36;5.20;92.80
70820;DHT22;58439;51.046;13.692;2023-02-01T01:19:04;5.20;92.90
70820;DHT22;58439;51.046;13.692;2023-02-01T01:21:32;5.10;93.00
70820;DHT22;58439;51.046;13.692;2023-02-01T01:23:59;5.00;92.80
70820;DHT22;58439;51.046;13.692;2023-02-01T01:26:28;5.00;92.90
70820;DHT22;58439;51.046;13.692;2023-02-01T01:28:58;5.00;92.90
70820;DHT22;58439;51.046;13.692;2023-02-01T01:31:28;5.00;92.70
70820;DHT22;58439;51.046;13.692;2023-02-01T01:33:57;5.00;92.30
70820;DHT22;58439;51.046;13.692;2023-02-01T01:36:28;5.00;92.20
70820;DHT22;58439;51.046;13.692;2023-02-01T01:38:56;5.00;92.30
70820;DHT22;58439;51.046;13.692;2023-02-01T01:41:26;5.00;92.10
70820;DHT22;58439;51.046;13.692;2023-02-01T01:44:05;5.10;91.40
70820;DHT22;58439;51.046;13.692;2023-02-01T01:46:36;5.10;91.20
70820;DHT22;58439;51.046;13.692;2023-02-01T01:49:14;5.00;91.20
70820;DHT22;58439;51.046;13.692;2023-02-01T01:51:51;5.00;91.20
70820;DHT22;58439;51.046;13.692;2023-02-01T01:54:27;5.10;91.10
70820;DHT22;58439;51.046;13.692;2023-02-01T01:57:02;5.10;91.10
70820;DHT22;58439;51.046;13.692;2023-02-01T01:59:38;5.10;91.00
70820;DHT22;58439;51.046;13.692;2023-02-01T02:02:07;5.00;91.00
70820;DHT22;58439;51.046;13.692;2023-02-01T02:04:35;5.00;90.90
70820;DHT22;58439;51.046;13.692;2023-02-01T02:07:07;4.90;91.00
70820;DHT22;58439;51.046;13.692;2023-02-01T02:09:38;4.90;91.20
70820;DHT22;58439;51.046;13.692;2023-02-01T02:12:13;4.90;91.10
70820;DHT22;58439;51.046;13.692;2023-02-01T02:14:41;5.00;90.80
70820;DHT22;58439;51.046;13.692;2023-02-01T02:20:15;4.90;90.70
70820;DHT22;58439;51.046;13.692;2023-02-01T02:26:12;5.00;90.10
70820;DHT22;58439;51.046;13.692;2023-02-01T02:35:45;5.00;89.30
70820;DHT22;58439;51.046;13.692;2023-02-01T02:38:41;5.00;89.10
70820;DHT22;58439;51.046;13.692;2023-02-01T02:41:51;5.00;89.50
70820;DHT22;58439;51.046;13.692;2023-02-01T02:50:49;5.00;89.40
70820;DHT22;58439;51.046;13.692;2023-02-01T02:53:44;5.00;89.70
70820;DHT22;58439;51.046;13.692;2023-02-01T02:56:37;5.00;90.20
70820;DHT22;58439;51.046;13.692;2023-02-01T02:59:28;5.00;89.70
70820;DHT22;58439;51.046;13.692;2023-02-01T03:02:17;5.00;89.30
70820;DHT22;58439;51.046;13.692;2023-02-01T03:05:04;5.00;88.90
70820;DHT22;58439;51.046;13.692;2023-02-01T03:08:02;5.00;89.00
70820;DHT22;58439;51.046;13.692;2023-02-01T03:13:53;5.00;89.40
70820;DHT22;58439;51.046;13.692;2023-02-01T03:16:39;4.90;89.40
70820;DHT22;58439;51.046;13.692;2023-02-01T03:19:35;4.90;89.30
70820;DHT22;58439;51.046;13.692;2023-02-01T03:22:14;4.90;89.50
70820;DHT22;58439;51.046;13.692;2023-02-01T03:24:55;4.90;89.60
70820;DHT22;58439;51.046;13.692;2023-02-01T03:27:57;4.90;89.40
70820;DHT22;58439;51.046;13.692;2023-02-01T03:30:33;4.90;89.50
70820;DHT22;58439;51.046;13.692;2023-02-01T03:33:16;5.00;89.20
70820;DHT22;58439;51.046;13.692;2023-02-01T03:41:25;5.00;88.90
70820;DHT22;58439;51.046;13.692;2023-02-01T03:44:26;5.00;88.50
70820;DHT22;58439;51.046;13.692;2023-02-01T03:50:03;5.00;88.30
70820;DHT22;58439;51.046;13.692;2023-02-01T03:52:50;5.00;88.20
70820;DHT22;58439;51.046;13.692;2023-02-01T03:55:22;5.10;87.90
70820;DHT22;58439;51.046;13.692;2023-02-01T03:57:57;5.10;87.60
70820;DHT22;58439;51.046;13.692;2023-02-01T04:00:29;5.10;87.20
70820;DHT22;58439;51.046;13.692;2023-02-01T04:02:58;5.10;87.00
70820;DHT22;58439;51.046;13.692;2023-02-01T04:05:26;5.20;86.70
70820;DHT22;58439;51.046;13.692;2023-02-01T04:08:02;5.20;86.60
70820;DHT22;58439;51.046;13.692;2023-02-01T04:10:31;5.20;86.70
70820;DHT22;58439;51.046;13.692;2023-02-01T04:12:59;5.20;86.40
70820;DHT22;58439;51.046;13.692;2023-02-01T04:15:27;5.20;86.40
70820;DHT22;58439;51.046;13.692;2023-02-01T04:17:54;5.20;85.90
70820;DHT22;58439;51.046;13.692;2023-02-01T04:20:21;5.20;85.70
70820;DHT22;58439;51.046;13.692;2023-02-01T04:22:49;5.30;85.20
70820;DHT22;58439;51.046;13.692;2023-02-01T04:25:16;5.30;84.40
70820;DHT22;58439;51.046;13.692;2023-02-01T04:27:46;5.30;84.10
70820;DHT22;58439;51.046;13.692;2023-02-01T04:30:13;5.30;84.10
70820;DHT22;58439;51.046;13.692;2023-02-01T04:32:41;5.30;84.10
70820;DHT22;58439;51.046;13.692;2023-02-01T04:35:09;5.30;84.70
70820;DHT22;58439;51.046;13.692;2023-02-01T04:37:36;5.20;84.10
70820;DHT22;58439;51.046;13.692;2023-02-01T04:40:04;5.20;84.30
70820;DHT22;58439;51.046;13.692;2023-02-01T04:42:32;5.20;84.50
70820;DHT22;58439;51.046;13.692;2023-02-01T04:44:59;5.10;84.50
70820;DHT22;58439;51.046;13.692;2023-02-01T04:47:26;5.20;84.50
70820;DHT22;58439;51.046;13.692;2023-02-01T04:49:53;5.10;84.40
70820;DHT22;58439;51.046;13.692;2023-02-01T04:52:20;5.20;84.00
70820;DHT22;58439;51.046;13.692;2023-02-01T04:54:50;5.20;83.80
70820;DHT22;58439;51.046;13.692;2023-02-01T04:57:17;5.10;84.00
70820;DHT22;58439;51.046;13.692;2023-02-01T04:59:45;5.10;84.00
70820;DHT22;58439;51.046;13.692;2023-02-01T05:02:12;5.10;84.00
70820;DHT22;58439;51.046;13.692;2023-02-01T05:04:39;5.10;84.00
70820;DHT22;58439;51.046;13.692;2023-02-01T05:07:06;5.10;83.60
70820;DHT22;58439;51.046;13.692;2023-02-01T05:09:34;5.20;83.30
70820;DHT22;58439;51.046;13.692;2023-02-01T05:12:01;5.20;83.20
70820;DHT22;58439;51.046;13.692;2023-02-01T05:14:46;5.10;83.20
70820;DHT22;58439;51.046;13.692;2023-02-01T05:17:14;5.10;83.00
70820;DHT22;58439;51.046;13.692;2023-02-01T05:19:41;5.10;83.00
70820;DHT22;58439;51.046;13.692;2023-02-01T05:22:08;5.10;82.80
70820;DHT22;58439;51.046;13.692;2023-02-01T05:24:35;5.10;82.50
70820;DHT22;58439;51.046;13.692;2023-02-01T05:27:04;5.10;82.50
70820;DHT22;58439;51.046;13.692;2023-02-01T05:29:32;5.20;82.50
70820;DHT22;58439;51.046;13.692;2023-02-01T05:31:59;5.10;82.60
70820;DHT22;58439;51.046;13.692;2023-02-01T05:34:41;5.10;82.40
70820;DHT22;58439;51.046;13.692;2023-02-01T05:37:08;5.20;82.10
70820;DHT22;58439;51.046;13.692;2023-02-01T05:39:35;5.20;81.70
70820;DHT22;58439;51.046;13.692;2023-02-01T05:42:03;5.20;81.70
70820;DHT22;58439;51.046;13.692;2023-02-01T05:44:31;5.20;82.00
70820;DHT22;58439;51.046;13.692;2023-02-01T05:46:58;5.20;82.00
70820;DHT22;58439;51.046;13.692;2023-02-01T05:49:25;5.20;81.90
70820;DHT22;58439;51.046;13.692;2023-02-01T05:51:52;5.20;81.80
70820;DHT22;58439;51.046;13.692;2023-02-01T05:54:19;5.20;82.20
70820;DHT22;58439;51.046;13.692;2023-02-01T05:56:46;5.20;82.40
70820;DHT22;58439;51.046;13.692;2023-02-01T05:59:13;5.20;82.10
70820;DHT22;58439;51.046;13.692;2023-02-01T06:01:40;5.30;81.70
70820;DHT22;58439;51.046;13.692;2023-02-01T06:04:08;5.30;81.20
70820;DHT22;58439;51.046;13.692;2023-02-01T06:06:35;5.30;81.00
70820;DHT22;58439;51.046;13.692;2023-02-01T06:09:03;5.30;81.10
70820;DHT22;58439;51.046;13.692;2023-02-01T06:11:30;5.30;81.30
70820;DHT22;58439;51.046;13.692;2023-02-01T06:13:59;5.30;81.40
70820;DHT22;58439;51.046;13.692;2023-02-01T06:16:27;5.30;81.40
70820;DHT22;58439;51.046;13.692;2023-02-01T06:18:54;5.30;81.40
70820;DHT22;58439;51.046;13.692;2023-02-01T06:21:21;5.30;81.30
70820;DHT22;58439;51.046;13.692;2023-02-01T06:23:55;5.30;81.40
70820;DHT22;58439;51.046;13.692;2023-02-01T06:26:24;5.30;81.10
70820;DHT22;58439;51.046;13.692;2023-02-01T06:28:55;5.30;81.20
70820;DHT22;58439;51.046;13.692;2023-02-01T06:31:23;5.30;81.00
70820;DHT22;58439;51.046;13.692;2023-02-01T06:33:51;5.30;80.90
70820;DHT22;58439;51.046;13.692;2023-02-01T06:36:20;5.30;81.00
70820;DHT22;58439;51.046;13.692;2023-02-01T06:38:48;5.30;81.10
70820;DHT22;58439;51.046;13.692;2023-02-01T06:41:17;5.30;81.30
70820;DHT22;58439;51.046;13.692;2023-02-01T06:43:44;5.40;81.30
70820;DHT22;58439;51.046;13.692;2023-02-01T06:46:13;5.40;81.90
70820;DHT22;58439;51.046;13.692;2023-02-01T06:48:40;5.30;83.10
70820;DHT22;58439;51.046;13.692;2023-02-01T06:51:22;5.20;84.20
70820;DHT22;58439;51.046;13.692;2023-02-01T06:53:51;5.20;85.10
70820;DHT22;58439;51.046;13.692;2023-02-01T06:56:19;5.20;85.80
70820;DHT22;58439;51.046;13.692;2023-02-01T06:58:47;5.20;86.00
70820;DHT22;58439;51.046;13.692;2023-02-01T07:01:16;5.20;85.90
70820;DHT22;58439;51.046;13.692;2023-02-01T07:03:47;5.30;85.40
70820;DHT22;58439;51.046;13.692;2023-02-01T07:06:15;5.30;85.20
70820;DHT22;58439;51.046;13.692;2023-02-01T07:08:43;5.40;84.90
70820;DHT22;58439;51.046;13.692;2023-02-01T07:11:13;5.40;85.30
70820;DHT22;58439;51.046;13.692;2023-02-01T07:13:41;5.40;86.30
70820;DHT22;58439;51.046;13.692;2023-02-01T07:16:17;5.30;87.80
70820;DHT22;58439;51.046;13.692;2023-02-01T07:18:46;5.20;90.00
70820;DHT22;58439;51.046;13.692;2023-02-01T07:21:13;5.10;90.60
70820;DHT22;58439;51.046;13.692;2023-02-01T07:23:41;4.90;91.30
70820;DHT22;58439;51.046;13.692;2023-02-01T07:26:11;4.80;92.50
70820;DHT22;58439;51.046;13.692;2023-02-01T07:28:40;4.70;93.70
70820;DHT22;58439;51.046;13.692;2023-02-01T07:31:16;4.50;94.90
70820;DHT22;58439;51.046;13.692;2023-02-01T07:33:48;4.40;95.50
70820;DHT22;58439;51.046;13.692;2023-02-01T07:36:19;4.30;96.50
70820;DHT22;58439;51.046;13.692;2023-02-01T07:38:46;4.20;97.10
70820;DHT22;58439;51.046;13.692;2023-02-01T07:41:19;4.10;97.80
70820;DHT22;58439;51.046;13.692;2023-02-01T07:43:52;4.20;99.50
70820;DHT22;58439;51.046;13.692;2023-02-01T07:46:20;4.30;99.40
70820;DHT22;58439;51.046;13.692;2023-02-01T07:48:50;4.30;99.40
70820;DHT22;58439;51.046;13.692;2023-02-01T07:51:17;4.40;98.80
70820;DHT22;58439;51.046;13.692;2023-02-01T07:53:45;4.40;98.50
70820;DHT22;58439;51.046;13.692;2023-02-01T07:56:18;4.50;98.50
70820;DHT22;58439;51.046;13.692;2023-02-01T07:58:51;4.50;97.70
70820;DHT22;58439;51.046;13.692;2023-02-01T08:01:24;4.50;97.50
70820;DHT22;58439;51.046;13.692;2023-02-01T08:04:00;4.50;97.20
70820;DHT22;58439;51.046;13.692;2023-02-01T08:06:33;4.50;96.90
70820;DHT22;58439;51.046;13.692;2023-02-01T08:09:05;4.50;96.70
70820;DHT22;58439;51.046;13.692;2023-02-01T08:11:35;4.50;96.50
70820;DHT22;58439;51.046;13.692;2023-02-01T08:14:05;4.50;96.70
70820;DHT22;58439;51.046;13.692;2023-02-01T08:16:36;4.40;96.80
70820;DHT22;58439;51.046;13.692;2023-02-01T08:19:04;4.40;96.90
70820;DHT22;58439;51.046;13.692;2023-02-01T08:21:33;4.40;96.90
70820;DHT22;58439;51.046;13.692;2023-02-01T08:24:05;4.40;97.00
70820;DHT22;58439;51.046;13.692;2023-02-01T08:26:35;4.30;97.20
70820;DHT22;58439;51.046;13.692;2023-02-01T08:29:05;4.30;97.60
70820;DHT22;58439;51.046;13.692;2023-02-01T08:31:38;4.20;97.90
70820;DHT22;58439;51.046;13.692;2023-02-01T08:34:14;4.20;98.10
70820;DHT22;58439;51.046;13.692;2023-02-01T08:36:42;4.20;98.10
70820;DHT22;58439;51.046;13.692;2023-02-01T08:39:13;4.30;98.00
70820;DHT22;58439;51.046;13.692;2023-02-01T08:41:40;4.30;97.40
70820;DHT22;58439;51.046;13.692;2023-02-01T08:44:13;4.40;96.90
70820;DHT22;58439;51.046;13.692;2023-02-01T08:46:41;4.50;96.20
70820;DHT22;58439;51.046;13.692;2023-02-01T08:49:08;4.60;95.30
70820;DHT22;58439;51.046;13.692;2023-02-01T08:51:36;4.70;94.50
70820;DHT22;58439;51.046;13.692;2023-02-01T08:54:03;4.80;93.70
70820;DHT22;58439;51.046;13.692;2023-02-01T08:56:39;4.90;92.90
70820;DHT22;58439;51.046;13.692;2023-02-01T08:59:07;5.00;91.80
70820;DHT22;58439;51.046;13.692;2023-02-01T09:01:34;5.10;91.30
70820;DHT22;58439;51.046;13.692;2023-02-01T09:04:01;5.20;91.30
70820;DHT22;58439;51.046;13.692;2023-02-01T09:06:28;5.30;90.50
70820;DHT22;58439;51.046;13.692;2023-02-01T09:08:55;5.40;89.80
70820;DHT22;58439;51.046;13.692;2023-02-01T09:11:25;5.50;89.50
70820;DHT22;58439;51.046;13.692;2023-02-01T09:13:54;5.60;88.90
70820;DHT22;58439;51.046;13.692;2023-02-01T09:16:21;5.60;88.00
70820;DHT22;58439;51.046;13.692;2023-02-01T09:18:51;5.70;88.00
70820;DHT22;58439;51.046;13.692;2023-02-01T09:21:35;5.70;87.60
70820;DHT22;58439;51.046;13.692;2023-02-01T09:24:03;5.70;87.90
70820;DHT22;58439;51.046;13.692;2023-02-01T09:26:31;5.70;88.20
70820;DHT22;58439;51.046;13.692;2023-02-01T09:28:59;5.60;89.10
70820;DHT22;58439;51.046;13.692;2023-02-01T09:31:30;5.50;90.00
70820;DHT22;58439;51.046;13.692;2023-02-01T09:33:59;5.40;90.90
70820;DHT22;58439;51.046;13.692;2023-02-01T09:36:28;5.20;92.20
70820;DHT22;58439;51.046;13.692;2023-02-01T09:38:57;5.10;93.50
70820;DHT22;58439;51.046;13.692;2023-02-01T09:47:54;4.80;95.40
70820;DHT22;58439;51.046;13.692;2023-02-01T09:50:38;4.70;96.60
70820;DHT22;58439;51.046;13.692;2023-02-01T09:56:34;4.30;99.90
70820;DHT22;58439;51.046;13.692;2023-02-01T10:02:02;3.90;99.90
70820;DHT22;58439;51.046;13.692;2023-02-01T10:04:35;3.80;99.90
70820;DHT22;58439;51.046;13.692;2023-02-01T10:07:09;3.70;99.90
70820;DHT22;58439;51.046;13.692;2023-02-01T10:10:11;3.70;99.90
70820;DHT22;58439;51.046;13.692;2023-02-01T10:16:25;3.60;99.90
70820;DHT22;58439;51.046;13.692;2023-02-01T10:22:33;3.60;99.90
70820;DHT22;58439;51.046;13.692;2023-02-01T10:25:36;3.70;99.90
70820;DHT22;58439;51.046;13.692;2023-02-01T10:28:13;3.70;99.90
70820;DHT22;58439;51.046;13.692;2023-02-01T10:30:46;3.70;99.90
70820;DHT22;58439;51.046;13.692;2023-02-01T10:36:31;3.80;99.90
70820;DHT22;58439;51.046;13.692;2023-02-01T10:39:12;3.90;99.90
70820;DHT22;58439;51.046;13.692;2023-02-01T10:41:41;3.90;99.90
70820;DHT22;58439;51.046;13.692;2023-02-01T10:44:15;4.00;99.90
70820;DHT22;58439;51.046;13.692;2023-02-01T10:46:51;4.10;99.90
70820;DHT22;58439;51.046;13.692;2023-02-01T10:49:41;4.10;99.90
70820;DHT22;58439;51.046;13.692;2023-02-01T10:52:31;4.20;99.90
70820;DHT22;58439;51.046;13.692;2023-02-01T10:55:33;4.30;99.90
70820;DHT22;58439;51.046;13.692;2023-02-01T10:58:15;4.50;99.90
70820;DHT22;58439;51.046;13.692;2023-02-01T11:06:33;4.70;99.90
70820;DHT22;58439;51.046;13.692;2023-02-01T11:11:56;4.90;99.90
70820;DHT22;58439;51.046;13.692;2023-02-01T11:16:52;5.00;99.90
70820;DHT22;58439;51.046;13.692;2023-02-01T11:19:27;5.00;99.90
70820;DHT22;58439;51.046;13.692;2023-02-01T11:21:58;5.10;99.90
70820;DHT22;58439;51.046;13.692;2023-02-01T11:24:32;5.10;99.90
70820;DHT22;58439;51.046;13.692;2023-02-01T11:27:05;5.10;99.90
70820;DHT22;58439;51.046;13.692;2023-02-01T11:29:56;5.20;99.90
70820;DHT22;58439;51.046;13.692;2023-02-01T11:32:34;5.30;99.70
70820;DHT22;58439;51.046;13.692;2023-02-01T11:35:04;5.50;98.30
70820;DHT22;58439;51.046;13.692;2023-02-01T11:37:41;5.60;98.10
70820;DHT22;58439;51.046;13.692;2023-02-01T11:43:00;5.70;97.30
70820;DHT22;58439;51.046;13.692;2023-02-01T11:45:58;5.70;97.00
70820;DHT22;58439;51.046;13.692;2023-02-01T11:48:30;5.60;97.00
70820;DHT22;58439;51.046;13.692;2023-02-01T11:57:06;5.80;96.30
70820;DHT22;58439;51.046;13.692;2023-02-01T12:00:00;5.70;97.00
70820;DHT22;58439;51.046;13.692;2023-02-01T12:06:11;5.50;98.80
70820;DHT22;58439;51.046;13.692;2023-02-01T12:12:19;5.40;98.60
70820;DHT22;58439;51.046;13.692;2023-02-01T12:15:27;5.50;98.60
70820;DHT22;58439;51.046;13.692;2023-02-01T12:18:26;5.60;98.10
70820;DHT22;58439;51.046;13.692;2023-02-01T12:24:31;5.60;97.80
70820;DHT22;58439;51.046;13.692;2023-02-01T12:31:01;5.60;97.40
70820;DHT22;58439;51.046;13.692;2023-02-01T12:34:10;5.60;96.70
70820;DHT22;58439;51.046;13.692;2023-02-01T12:43:34;5.80;94.70
70820;DHT22;58439;51.046;13.692;2023-02-01T12:46:16;5.90;94.90
70820;DHT22;58439;51.046;13.692;2023-02-01T12:49:02;6.00;94.30
70820;DHT22;58439;51.046;13.692;2023-02-01T12:52:05;6.00;94.60
70820;DHT22;58439;51.046;13.692;2023-02-01T12:54:47;6.00;94.20
70820;DHT22;58439;51.046;13.692;2023-02-01T12:57:30;6.00;94.30
70820;DHT22;58439;51.046;13.692;2023-02-01T13:06:17;6.20;94.00
70820;DHT22;58439;51.046;13.692;2023-02-01T13:09:00;6.30;93.70
70820;DHT22;58439;51.046;13.692;2023-02-01T13:11:37;6.30;93.40
70820;DHT22;58439;51.046;13.692;2023-02-01T13:14:29;6.20;93.50
70820;DHT22;58439;51.046;13.692;2023-02-01T13:17:15;6.30;93.50
70820;DHT22;58439;51.046;13.692;2023-02-01T13:20:46;6.40;93.80
70820;DHT22;58439;51.046;13.692;2023-02-01T13:23:24;6.50;93.10
70820;DHT22;58439;51.046;13.692;2023-02-01T13:25:58;6.60;92.00
70820;DHT22;58439;51.046;13.692;2023-02-01T13:28:29;6.70;91.60
70820;DHT22;58439;51.046;13.692;2023-02-01T13:43:22;6.90;87.00
70820;DHT22;58439;51.046;13.692;2023-02-01T13:46:02;6.90;85.10
70820;DHT22;58439;51.046;13.692;2023-02-01T13:48:59;6.80;86.90
70820;DHT22;58439;51.046;13.692;2023-02-01T13:51:37;6.90;86.30
70820;DHT22;58439;51.046;13.692;2023-02-01T13:54:26;6.80;85.20
70820;DHT22;58439;51.046;13.692;2023-02-01T13:56:57;6.80;83.00
70820;DHT22;58439;51.046;13.692;2023-02-01T14:10:53;6.80;80.70
70820;DHT22;58439;51.046;13.692;2023-02-01T14:13:33;6.80;80.50
70820;DHT22;58439;51.046;13.692;2023-02-01T14:26:42;6.80;77.70
70820;DHT22;58439;51.046;13.692;2023-02-01T14:32:00;6.80;75.80
70820;DHT22;58439;51.046;13.692;2023-02-01T14:34:53;6.90;75.20
70820;DHT22;58439;51.046;13.692;2023-02-01T14:37:30;6.80;75.80
70820;DHT22;58439;51.046;13.692;2023-02-01T14:40:06;6.80;75.00
70820;DHT22;58439;51.046;13.692;2023-02-01T14:42:49;6.80;75.50
70820;DHT22;58439;51.046;13.692;2023-02-01T14:50:49;6.60;77.00
70820;DHT22;58439;51.046;13.692;2023-02-01T14:53:33;6.50;77.30
70820;DHT22;58439;51.046;13.692;2023-02-01T15:06:41;6.50;77.20
70820;DHT22;58439;51.046;13.692;2023-02-01T15:09:28;6.50;77.70
70820;DHT22;58439;51.046;13.692;2023-02-01T15:14:42;6.40;78.20
70820;DHT22;58439;51.046;13.692;2023-02-01T15:20:03;6.40;78.40
70820;DHT22;58439;51.046;13.692;2023-02-01T15:23:03;6.30;80.40
70820;DHT22;58439;51.046;13.692;2023-02-01T15:25:35;6.10;84.00
70820;DHT22;58439;51.046;13.692;2023-02-01T15:28:04;5.80;87.10
70820;DHT22;58439;51.046;13.692;2023-02-01T15:30:35;5.60;89.40
70820;DHT22;58439;51.046;13.692;2023-02-01T15:33:21;5.50;91.00
70820;DHT22;58439;51.046;13.692;2023-02-01T15:35:52;5.40;91.20
70820;DHT22;58439;51.046;13.692;2023-02-01T15:46:41;5.40;90.00
70820;DHT22;58439;51.046;13.692;2023-02-01T15:51:50;5.50;89.20
70820;DHT22;58439;51.046;13.692;2023-02-01T15:54:48;5.60;86.30
70820;DHT22;58439;51.046;13.692;2023-02-01T15:57:23;5.70;85.90
70820;DHT22;58439;51.046;13.692;2023-02-01T16:00:17;5.80;84.90
70820;DHT22;58439;51.046;13.692;2023-02-01T16:03:00;5.80;84.00
70820;DHT22;58439;51.046;13.692;2023-02-01T16:05:36;5.90;83.50
70820;DHT22;58439;51.046;13.692;2023-02-01T16:08:13;5.90;85.00
70820;DHT22;58439;51.046;13.692;2023-02-01T16:10:45;5.70;90.00
70820;DHT22;58439;51.046;13.692;2023-02-01T16:13:18;5.30;91.40
70820;DHT22;58439;51.046;13.692;2023-02-01T16:15:47;5.10;92.70
70820;DHT22;58439;51.046;13.692;2023-02-01T16:18:15;4.90;93.50
70820;DHT22;58439;51.046;13.692;2023-02-01T16:20:44;4.80;94.40
70820;DHT22;58439;51.046;13.692;2023-02-01T16:23:13;4.80;95.00
70820;DHT22;58439;51.046;13.692;2023-02-01T16:25:41;4.80;95.20
70820;DHT22;58439;51.046;13.692;2023-02-01T16:28:20;4.80;95.20
70820;DHT22;58439;51.046;13.692;2023-02-01T16:30:52;4.80;95.20
70820;DHT22;58439;51.046;13.692;2023-02-01T16:33:20;4.80;95.50
70820;DHT22;58439;51.046;13.692;2023-02-01T16:35:52;4.70;96.00
70820;DHT22;58439;51.046;13.692;2023-02-01T16:38:26;4.70;96.90
70820;DHT22;58439;51.046;13.692;2023-02-01T16:40:53;4.50;97.40
70820;DHT22;58439;51.046;13.692;2023-02-01T16:43:22;4.50;98.20
70820;DHT22;58439;51.046;13.692;2023-02-01T16:45:51;4.40;98.80
70820;DHT22;58439;51.046;13.692;2023-02-01T16:48:22;4.30;99.40
70820;DHT22;58439;51.046;13.692;2023-02-01T16:50:57;4.30;99.90
70820;DHT22;58439;51.046;13.692;2023-02-01T16:53:33;4.30;99.90
70820;DHT22;58439;51.046;13.692;2023-02-01T16:56:31;4.30;99.90
70820;DHT22;58439;51.046;13.692;2023-02-01T16:59:00;4.30;99.90
70820;DHT22;58439;51.046;13.692;2023-02-01T17:01:28;4.30;99.90
70820;DHT22;58439;51.046;13.692;2023-02-01T17:03:55;4.30;99.90
70820;DHT22;58439;51.046;13.692;2023-02-01T17:06:24;4.30;99.90
70820;DHT22;58439;51.046;13.692;2023-02-01T17:08:55;4.20;99.90
70820;DHT22;58439;51.046;13.692;2023-02-01T17:11:26;3.70;99.90
70820;DHT22;58439;51.046;13.692;2023-02-01T17:13:57;3.00;99.90
70820;DHT22;58439;51.046;13.692;2023-02-01T17:16:35;2.60;99.90
70820;DHT22;58439;51.046;13.692;2023-02-01T17:19:03;2.40;99.90
70820;DHT22;58439;51.046;13.692;2023-02-01T17:21:36;2.30;99.90
70820;DHT22;58439;51.046;13.692;2023-02-01T17:24:08;2.30;99.90
70820;DHT22;58439;51.046;13.692;2023-02-01T17:26:42;2.30;99.90
70820;DHT22;58439;51.046;13.692;2023-02-01T17:29:10;2.30;99.90
70820;DHT22;58439;51.046;13.692;2023-02-01T17:31:42;2.50;99.90
70820;DHT22;58439;51.046;13.692;2023-02-01T17:34:14;2.60;99.90
70820;DHT22;58439;51.046;13.692;2023-02-01T17:36:43;2.70;99.90
70820;DHT22;58439;51.046;13.692;2023-02-01T17:39:11;2.70;99.90
70820;DHT22;58439;51.046;13.692;2023-02-01T17:41:59;2.70;99.90
70820;DHT22;58439;51.046;13.692;2023-02-01T17:44:26;2.70;99.90
70820;DHT22;58439;51.046;13.692;2023-02-01T17:46:54;2.70;99.90
70820;DHT22;58439;51.046;13.692;2023-02-01T17:49:22;2.60;99.90
70820;DHT22;58439;51.046;13.692;2023-02-01T17:52:02;2.70;99.90
70820;DHT22;58439;51.046;13.692;2023-02-01T17:54:35;2.70;99.90
70820;DHT22;58439;51.046;13.692;2023-02-01T17:57:13;2.70;99.90
70820;DHT22;58439;51.046;13.692;2023-02-01T17:59:40;2.80;99.90
70820;DHT22;58439;51.046;13.692;2023-02-01T18:02:17;2.80;99.90
70820;DHT22;58439;51.046;13.692;2023-02-01T18:04:49;2.80;99.90
70820;DHT22;58439;51.046;13.692;2023-02-01T18:07:18;2.90;99.90
70820;DHT22;58439;51.046;13.692;2023-02-01T18:09:45;2.90;99.90
70820;DHT22;58439;51.046;13.692;2023-02-01T18:12:14;3.00;99.90
70820;DHT22;58439;51.046;13.692;2023-02-01T18:14:46;2.90;99.90
70820;DHT22;58439;51.046;13.692;2023-02-01T18:17:13;3.00;99.90
70820;DHT22;58439;51.046;13.692;2023-02-01T18:19:40;2.90;99.90
70820;DHT22;58439;51.046;13.692;2023-02-01T18:22:14;3.00;99.90
70820;DHT22;58439;51.046;13.692;2023-02-01T18:24:45;2.90;99.90
70820;DHT22;58439;51.046;13.692;2023-02-01T18:27:12;3.00;99.90
70820;DHT22;58439;51.046;13.692;2023-02-01T18:29:40;3.10;99.90
70820;DHT22;58439;51.046;13.692;2023-02-01T18:32:16;3.10;99.90
70820;DHT22;58439;51.046;13.692;2023-02-01T18:34:46;3.10;99.90
70820;DHT22;58439;51.046;13.692;2023-02-01T18:37:23;3.00;99.90
70820;DHT22;58439;51.046;13.692;2023-02-01T18:39:50;2.90;99.90
70820;DHT22;58439;51.046;13.692;2023-02-01T18:42:18;2.90;99.90
70820;DHT22;58439;51.046;13.692;2023-02-01T18:44:48;2.90;99.90
70820;DHT22;58439;51.046;13.692;2023-02-01T18:47:15;2.90;99.90
70820;DHT22;58439;51.046;13.692;2023-02-01T18:49:42;2.90;99.90
70820;DHT22;58439;51.046;13.692;2023-02-01T18:52:09;2.90;99.90
70820;DHT22;58439;51.046;13.692;2023-02-01T18:54:39;2.90;99.90
70820;DHT22;58439;51.046;13.692;2023-02-01T18:57:25;3.00;99.90
70820;DHT22;58439;51.046;13.692;2023-02-01T18:59:53;3.10;99.90
70820;DHT22;58439;51.046;13.692;2023-02-01T19:02:25;3.00;99.90